Cherry Fork, Ohio
Current Conditions -  °F | °C
As of 7:15 AM on Monday 20 Oct 2014 (Local Time) from KFGX Reporting Station
Clear Clear  
Wind Chill: 40°   Ceiling: Unl
Heat Index: 43°   Visibility: 10mi
Dew Point: 41°   Wind: 6mph
Humidity: 90%   Direction: 190°S
Pressure: 30.05"   Gusts: NA
Location:  38.89°N, 83.61°W
Report Text: KFGX 201115Z AUTO 19005KT 10SM CLR 06/05 A3005 RMK AO2 T00630048
Loading
Personal Weather Stations






























Interactive Weather Map
Tropical Storm Tracking
New forecast layout! Learn more

10-Day Weather Forecast

Advertisements
Track Severe Weather on mobile